createdAt,value
2023-04-10T00:00:02.155Z,10.27
2023-04-10T00:02:29.148Z,10.63
2023-04-10T00:04:56.432Z,10.83
2023-04-10T00:07:23.191Z,10.60
2023-04-10T00:09:49.999Z,10.87
2023-04-10T00:12:17.120Z,10.23
2023-04-10T00:14:44.140Z,10.63
2023-04-10T00:17:11.025Z,11.47
2023-04-10T00:19:37.867Z,9.93
2023-04-10T00:22:05.752Z,10.80
2023-04-10T00:24:32.465Z,10.37
2023-04-10T00:26:59.188Z,10.57
2023-04-10T00:29:25.976Z,10.00
2023-04-10T00:31:52.836Z,9.93
2023-04-10T00:34:21.558Z,9.67
2023-04-10T00:36:48.346Z,9.70
2023-04-10T00:39:15.701Z,9.73
2023-04-10T00:41:42.520Z,9.53
2023-04-10T00:44:09.296Z,9.47
2023-04-10T00:46:38.146Z,9.30
2023-04-10T00:49:06.283Z,10.27
2023-04-10T00:51:33.684Z,10.53
2023-04-10T00:54:01.280Z,9.00
2023-04-10T00:56:30.039Z,9.17
2023-04-10T00:58:57.074Z,9.70
2023-04-10T01:01:23.837Z,8.93
2023-04-10T01:03:51.302Z,10.07
2023-04-10T01:06:39.200Z,9.97
2023-04-10T01:09:23.899Z,10.73
2023-04-10T01:12:05.510Z,10.20
2023-04-10T01:15:10.751Z,10.13
2023-04-10T01:17:43.475Z,10.97
2023-04-10T01:20:13.339Z,10.60
2023-04-10T01:23:12.152Z,11.13
2023-04-10T01:25:57.341Z,10.70
2023-04-10T01:28:51.666Z,11.13
2023-04-10T01:31:30.008Z,11.30
2023-04-10T01:34:06.349Z,11.37
2023-04-10T01:36:40.617Z,11.70
2023-04-10T01:39:09.837Z,11.70
2023-04-10T01:41:38.528Z,11.83
2023-04-10T01:44:07.442Z,12.30
2023-04-10T01:46:34.792Z,12.63
2023-04-10T01:49:03.180Z,11.97
2023-04-10T01:51:31.523Z,13.93
2023-04-10T01:53:59.715Z,14.50
2023-04-10T01:56:27.232Z,14.23
2023-04-10T01:58:55.223Z,12.90
2023-04-10T02:01:29.734Z,13.17
2023-04-10T02:04:00.834Z,13.23
2023-04-10T02:06:33.037Z,14.00
2023-04-10T02:09:23.399Z,12.70
2023-04-10T02:12:04.379Z,12.43
2023-04-10T02:14:33.903Z,13.43
2023-04-10T02:17:01.652Z,13.20
2023-04-10T02:19:29.192Z,14.07
2023-04-10T02:21:57.100Z,13.20
2023-04-10T02:24:23.890Z,13.17
2023-04-10T02:26:52.280Z,13.47
2023-04-10T02:29:19.392Z,14.13
2023-04-10T02:31:46.883Z,14.63
2023-04-10T02:34:13.798Z,15.07
2023-04-10T02:36:40.677Z,14.23
2023-04-10T02:39:08.577Z,14.00
2023-04-10T02:41:35.450Z,15.13
2023-04-10T02:44:02.260Z,15.60
2023-04-10T02:46:29.130Z,15.40
2023-04-10T02:48:56.192Z,15.73
2023-04-10T02:51:22.960Z,14.67
2023-04-10T02:53:49.728Z,16.43
2023-04-10T02:56:16.473Z,14.73
2023-04-10T02:58:46.166Z,14.83
2023-04-10T03:01:13.240Z,16.97
2023-04-10T03:03:40.212Z,15.70
2023-04-10T03:06:08.988Z,18.00
2023-04-10T03:08:35.742Z,16.10
2023-04-10T03:11:02.593Z,16.70
2023-04-10T03:13:29.333Z,17.87
2023-04-10T03:15:56.175Z,17.13
2023-04-10T03:18:22.917Z,16.43
2023-04-10T03:20:49.976Z,15.73
2023-04-10T03:23:16.917Z,15.97
2023-04-10T03:25:43.639Z,17.37
2023-04-10T03:28:10.377Z,17.43
2023-04-10T03:30:37.282Z,17.17
2023-04-10T03:33:04.222Z,16.63
2023-04-10T03:35:31.472Z,18.27
2023-04-10T03:37:58.315Z,16.83
2023-04-10T03:40:25.291Z,18.20
2023-04-10T03:42:52.082Z,16.73
2023-04-10T03:45:19.031Z,16.47
2023-04-10T03:47:45.884Z,18.60
2023-04-10T03:50:13.245Z,18.83
2023-04-10T03:52:40.380Z,16.27
2023-04-10T03:55:07.453Z,16.50
2023-04-10T03:57:34.193Z,16.30
2023-04-10T04:00:00.999Z,15.90
2023-04-10T04:02:28.106Z,14.93
2023-04-10T04:04:55.290Z,16.70
2023-04-10T04:07:22.097Z,14.60
2023-04-10T04:09:48.871Z,15.20
2023-04-10T04:12:15.671Z,16.23
2023-04-10T04:14:43.257Z,13.17
2023-04-10T04:17:10.581Z,14.80
2023-04-10T04:19:37.462Z,14.90
2023-04-10T04:22:04.264Z,13.07
2023-04-10T04:24:30.980Z,13.67
2023-04-10T04:26:57.875Z,13.03
2023-04-10T04:29:24.624Z,12.80
2023-04-10T04:31:51.449Z,14.43
2023-04-10T04:34:18.406Z,14.23
2023-04-10T04:36:45.204Z,12.87
2023-04-10T04:39:12.346Z,11.80
2023-04-10T04:41:39.148Z,12.50
2023-04-10T04:44:06.632Z,13.00
2023-04-10T04:46:33.421Z,11.87
2023-04-10T04:49:00.374Z,11.33
2023-04-10T04:51:27.334Z,12.07
2023-04-10T04:53:54.195Z,10.40
2023-04-10T04:56:21.427Z,11.33
2023-04-10T04:58:48.198Z,12.63
2023-04-10T05:01:15.037Z,11.60
2023-04-10T05:03:41.898Z,12.07
2023-04-10T05:06:09.805Z,12.07
2023-04-10T05:08:36.594Z,11.57
2023-04-10T05:11:03.429Z,11.70
2023-04-10T05:13:30.280Z,12.40
2023-04-10T05:15:58.127Z,11.93
2023-04-10T05:18:25.106Z,11.80
2023-04-10T05:20:52.038Z,13.13
2023-04-10T05:23:18.796Z,13.23
2023-04-10T05:25:45.612Z,13.53
2023-04-10T05:28:12.454Z,14.17
2023-04-10T05:30:39.189Z,13.20
2023-04-10T05:33:06.117Z,13.43
2023-04-10T05:35:32.846Z,11.93
2023-04-10T05:38:00.711Z,14.17
2023-04-10T05:40:29.184Z,13.57
2023-04-10T05:42:56.058Z,11.57
2023-04-10T05:45:22.956Z,12.43
2023-04-10T05:47:49.951Z,10.40
2023-04-10T05:50:16.789Z,10.33
2023-04-10T05:52:43.782Z,10.43
2023-04-10T05:55:10.732Z,10.10
2023-04-10T05:57:37.463Z,9.17
2023-04-10T06:00:04.880Z,9.97
2023-04-10T06:02:32.963Z,9.17
2023-04-10T06:04:59.914Z,8.57
2023-04-10T06:07:27.373Z,8.83
2023-04-10T06:09:54.165Z,8.20
2023-04-10T06:12:20.909Z,8.17
2023-04-10T06:14:47.892Z,6.17
2023-04-10T06:17:14.804Z,7.03
2023-04-10T06:19:41.538Z,6.57
2023-04-10T06:22:08.265Z,6.10
2023-04-10T06:24:35.036Z,6.30
2023-04-10T06:27:02.394Z,6.73
2023-04-10T06:29:29.140Z,5.97
2023-04-10T06:31:55.929Z,6.80
2023-04-10T06:34:22.728Z,5.33
2023-04-10T06:36:49.527Z,5.00
2023-04-10T06:39:16.260Z,4.63
2023-04-10T06:41:43.048Z,4.50
2023-04-10T06:44:09.777Z,4.27
2023-04-10T06:46:36.468Z,4.13
2023-04-10T06:49:03.282Z,3.83
2023-04-10T06:51:30.071Z,3.47
2023-04-10T06:53:56.883Z,3.73
2023-04-10T06:56:23.621Z,3.27
2023-04-10T06:58:50.471Z,3.90
2023-04-10T07:01:18.779Z,2.97
2023-04-10T07:03:45.902Z,3.07
2023-04-10T07:06:13.116Z,2.97
2023-04-10T07:08:40.058Z,3.17
2023-04-10T07:11:07.041Z,2.93
2023-04-10T07:13:35.702Z,2.87
2023-04-10T07:16:03.653Z,2.60
2023-04-10T07:18:30.568Z,2.70
2023-04-10T07:20:57.594Z,2.70
2023-04-10T07:23:24.332Z,2.80
2023-04-10T07:25:52.082Z,3.10
2023-04-10T07:28:18.830Z,2.67
2023-04-10T07:30:46.186Z,2.87
2023-04-10T07:33:13.175Z,3.43
2023-04-10T07:35:40.330Z,3.30
2023-04-10T07:38:07.098Z,3.53
2023-04-10T07:40:33.910Z,3.93
2023-04-10T07:43:00.749Z,4.60
2023-04-10T07:45:28.624Z,3.47
2023-04-10T07:47:55.977Z,3.80
2023-04-10T07:50:22.863Z,4.20
2023-04-10T07:52:49.799Z,3.87
2023-04-10T07:55:16.669Z,4.30
2023-04-10T07:57:43.356Z,4.10
2023-04-10T08:00:10.716Z,4.07
2023-04-10T08:02:37.645Z,3.50
2023-04-10T08:05:04.933Z,3.83
2023-04-10T08:07:31.779Z,3.37
2023-04-10T08:09:58.576Z,3.30
2023-04-10T08:12:25.589Z,3.10
2023-04-10T08:14:52.301Z,2.70
2023-04-10T08:17:19.428Z,2.73
2023-04-10T08:19:46.164Z,2.80
2023-04-10T08:22:13.142Z,2.80
2023-04-10T08:24:39.938Z,3.10
2023-04-10T08:27:06.699Z,2.23
2023-04-10T08:29:33.546Z,2.50
2023-04-10T08:32:01.158Z,3.00
2023-04-10T08:34:28.446Z,2.83
2023-04-10T08:36:55.517Z,2.37
2023-04-10T08:39:22.315Z,2.40
2023-04-10T08:41:49.683Z,1.87
2023-04-10T08:44:16.950Z,2.13
2023-04-10T08:46:45.330Z,2.20
2023-04-10T08:49:23.503Z,2.23
2023-04-10T08:51:56.762Z,2.17
2023-04-10T08:54:29.707Z,2.10
2023-04-10T08:56:58.515Z,1.90
2023-04-10T08:59:25.668Z,2.30
2023-04-10T09:01:53.736Z,2.07
2023-04-10T09:04:21.249Z,2.13
2023-04-10T09:06:48.208Z,2.60
2023-04-10T09:09:15.062Z,2.20
2023-04-10T09:11:57.405Z,2.50
2023-04-10T09:14:25.930Z,2.50
2023-04-10T09:16:54.648Z,2.70
2023-04-10T09:19:32.388Z,2.57
2023-04-10T09:21:59.573Z,2.63
2023-04-10T09:24:27.473Z,2.17
2023-04-10T09:26:54.457Z,2.40
2023-04-10T09:29:21.324Z,2.27
2023-04-10T09:31:48.105Z,2.47
2023-04-10T09:34:16.465Z,2.40
2023-04-10T09:36:55.012Z,2.50
2023-04-10T09:39:22.959Z,2.60
2023-04-10T09:41:51.031Z,2.53
2023-04-10T09:44:27.789Z,2.53
2023-04-10T09:46:55.493Z,2.33
2023-04-10T09:49:22.685Z,2.50
2023-04-10T09:51:49.821Z,2.50
2023-04-10T09:54:41.252Z,2.10
2023-04-10T09:57:08.561Z,2.30
2023-04-10T09:59:37.884Z,1.80
2023-04-10T10:02:05.996Z,1.97
2023-04-10T10:04:33.983Z,1.83
2023-04-10T10:07:01.540Z,1.63
2023-04-10T10:09:29.414Z,1.40
2023-04-10T10:11:56.466Z,1.37
2023-04-10T10:14:27.717Z,1.30
2023-04-10T10:16:57.467Z,1.10
2023-04-10T10:19:38.722Z,1.30
2023-04-10T10:22:06.498Z,1.37
2023-04-10T10:24:34.312Z,1.10
2023-04-10T10:27:04.348Z,1.10
2023-04-10T10:29:34.798Z,0.90
2023-04-10T10:32:04.137Z,1.00
2023-04-10T10:34:32.274Z,1.17
2023-04-10T10:36:59.864Z,0.93
2023-04-10T10:39:45.217Z,0.80
2023-04-10T10:42:36.998Z,0.40
2023-04-10T10:45:19.310Z,1.20
2023-04-10T10:47:55.383Z,0.60
2023-04-10T10:50:25.050Z,0.90
2023-04-10T10:52:54.123Z,0.60
2023-04-10T10:55:36.567Z,0.57
2023-04-10T10:58:05.548Z,0.70
2023-04-10T11:00:50.527Z,0.53
2023-04-10T11:03:17.682Z,0.83
2023-04-10T11:05:55.603Z,0.60
2023-04-10T11:08:44.545Z,1.13
2023-04-10T11:11:25.641Z,1.00
2023-04-10T11:13:58.665Z,1.03
2023-04-10T11:16:34.778Z,1.23
2023-04-10T11:19:14.004Z,0.83
2023-04-10T11:22:08.040Z,1.10
2023-04-10T11:25:10.700Z,1.30
2023-04-10T11:27:41.650Z,1.37
2023-04-10T11:30:33.149Z,1.67
2023-04-10T11:33:02.331Z,1.70
2023-04-10T11:35:33.699Z,1.50
2023-04-10T11:38:18.032Z,2.47
2023-04-10T11:40:59.587Z,2.57
2023-04-10T11:43:26.511Z,1.80
2023-04-10T11:46:04.341Z,1.97
2023-04-10T11:48:31.888Z,2.10
2023-04-10T11:51:00.118Z,2.00
2023-04-10T11:53:27.300Z,2.37
2023-04-10T11:55:54.912Z,2.10
2023-04-10T11:58:28.168Z,2.63
2023-04-10T12:01:05.390Z,2.50
2023-04-10T12:03:41.184Z,2.90
2023-04-10T12:06:13.030Z,2.57
2023-04-10T12:08:41.634Z,2.60
2023-04-10T12:11:10.206Z,2.90
2023-04-10T12:13:37.823Z,2.93
2023-04-10T12:16:07.827Z,3.23
2023-04-10T12:18:35.921Z,2.80
2023-04-10T12:21:04.751Z,2.70
2023-04-10T12:23:32.634Z,3.30
2023-04-10T12:26:14.389Z,3.43
2023-04-10T12:28:42.705Z,3.07
2023-04-10T12:31:09.993Z,2.80
2023-04-10T12:33:37.848Z,3.30
2023-04-10T12:36:04.902Z,3.33
2023-04-10T12:38:35.376Z,2.60
2023-04-10T12:41:04.271Z,2.53
2023-04-10T12:43:36.362Z,2.57
2023-04-10T12:46:04.773Z,2.77
2023-04-10T12:48:31.868Z,3.23
2023-04-10T12:51:00.401Z,3.03
2023-04-10T12:53:28.151Z,2.83
2023-04-10T12:56:07.815Z,2.90
2023-04-10T12:58:35.091Z,2.40
2023-04-10T13:01:06.713Z,2.47
2023-04-10T13:03:38.014Z,2.80
2023-04-10T13:06:08.572Z,3.63
2023-04-10T13:08:36.180Z,1.87
2023-04-10T13:11:03.641Z,2.50
2023-04-10T13:13:34.142Z,2.10
2023-04-10T13:16:01.127Z,2.27
2023-04-10T13:18:28.273Z,2.33
2023-04-10T13:20:55.419Z,1.93
2023-04-10T13:23:22.636Z,2.13
2023-04-10T13:25:49.860Z,1.83
2023-04-10T13:28:18.986Z,2.93
2023-04-10T13:30:45.791Z,3.07
2023-04-10T13:33:12.623Z,1.70
2023-04-10T13:35:42.959Z,1.70
2023-04-10T13:38:11.642Z,2.47
2023-04-10T13:40:38.456Z,2.23
2023-04-10T13:43:06.516Z,2.63
2023-04-10T13:45:34.857Z,1.67
2023-04-10T13:48:01.681Z,2.20
2023-04-10T13:50:28.432Z,2.23
2023-04-10T13:52:55.304Z,2.00
2023-04-10T13:55:22.017Z,2.17
2023-04-10T13:57:48.789Z,2.60
2023-04-10T14:00:15.974Z,2.33
2023-04-10T14:02:43.011Z,1.83
2023-04-10T14:05:10.402Z,2.00
2023-04-10T14:07:37.337Z,2.43
2023-04-10T14:10:04.453Z,2.20
2023-04-10T14:12:31.573Z,2.40
2023-04-10T14:14:59.364Z,2.00
2023-04-10T14:17:26.242Z,1.93
2023-04-10T14:19:54.044Z,2.03
2023-04-10T14:22:23.233Z,2.20
2023-04-10T14:24:51.110Z,1.87
2023-04-10T14:27:19.367Z,1.83
2023-04-10T14:29:54.232Z,2.30
2023-04-10T14:32:21.746Z,1.77
2023-04-10T14:34:48.740Z,2.03
2023-04-10T14:37:15.788Z,2.43
2023-04-10T14:39:42.623Z,2.43
2023-04-10T14:42:10.621Z,1.63
2023-04-10T14:44:37.343Z,2.87
2023-04-10T14:47:06.519Z,1.90
2023-04-10T14:49:33.538Z,2.27
2023-04-10T14:52:00.405Z,1.70
2023-04-10T14:54:27.301Z,2.10
2023-04-10T14:56:54.006Z,2.00
2023-04-10T14:59:20.783Z,2.10
2023-04-10T15:01:47.655Z,1.93
2023-04-10T15:04:14.564Z,2.47
2023-04-10T15:06:41.791Z,2.03
2023-04-10T15:09:09.647Z,2.23
2023-04-10T15:11:36.410Z,1.50
2023-04-10T15:14:03.329Z,1.50
2023-04-10T15:16:30.648Z,1.60
2023-04-10T15:18:57.432Z,1.63
2023-04-10T15:21:24.306Z,1.60
2023-04-10T15:23:51.216Z,1.57
2023-04-10T15:26:18.016Z,1.60
2023-04-10T15:28:45.276Z,1.93
2023-04-10T15:31:12.675Z,1.57
2023-04-10T15:33:49.558Z,1.90
2023-04-10T15:36:16.703Z,2.23
2023-04-10T15:38:43.921Z,1.70
2023-04-10T15:41:11.976Z,1.33
2023-04-10T15:43:39.619Z,2.17
2023-04-10T15:46:06.995Z,1.87
2023-04-10T15:48:34.615Z,1.80
2023-04-10T15:51:06.214Z,2.07
2023-04-10T15:53:34.365Z,1.77
2023-04-10T15:56:04.360Z,2.13
2023-04-10T15:58:31.630Z,1.87
2023-04-10T16:00:59.037Z,1.83
2023-04-10T16:03:29.926Z,2.00
2023-04-10T16:05:58.615Z,1.60
2023-04-10T16:08:26.586Z,2.00
2023-04-10T16:10:54.311Z,1.90
2023-04-10T16:13:21.181Z,2.20
2023-04-10T16:15:49.093Z,2.50
2023-04-10T16:18:15.866Z,2.23
2023-04-10T16:20:42.747Z,2.43
2023-04-10T16:23:09.591Z,2.10
2023-04-10T16:25:36.710Z,2.10
2023-04-10T16:28:06.487Z,2.10
2023-04-10T16:30:36.481Z,1.77
2023-04-10T16:33:04.219Z,1.73
2023-04-10T16:35:31.494Z,2.13
2023-04-10T16:37:58.479Z,2.23
2023-04-10T16:40:32.161Z,2.30
2023-04-10T16:43:01.011Z,2.73
2023-04-10T16:45:28.262Z,2.43
2023-04-10T16:47:55.116Z,2.20
2023-04-10T16:50:22.110Z,2.63
2023-04-10T16:52:48.943Z,2.57
2023-04-10T16:55:15.915Z,2.00
2023-04-10T16:57:43.405Z,2.07
2023-04-10T17:00:11.502Z,2.50
2023-04-10T17:02:38.569Z,2.43
2023-04-10T17:05:05.701Z,2.60
2023-04-10T17:07:32.502Z,2.80
2023-04-10T17:09:59.721Z,2.40
2023-04-10T17:12:26.851Z,2.87
2023-04-10T17:14:53.659Z,2.93
2023-04-10T17:17:20.531Z,2.57
2023-04-10T17:19:47.496Z,2.70
2023-04-10T17:22:17.203Z,2.47
2023-04-10T17:24:44.776Z,2.37
2023-04-10T17:27:11.849Z,2.17
2023-04-10T17:29:39.209Z,2.00
2023-04-10T17:32:07.049Z,2.40
2023-04-10T17:34:34.436Z,2.10
2023-04-10T17:37:01.562Z,2.00
2023-04-10T17:39:28.826Z,2.20
2023-04-10T17:41:56.770Z,1.50
2023-04-10T17:44:23.617Z,2.00
2023-04-10T17:46:50.617Z,2.20
2023-04-10T17:49:17.598Z,2.00
2023-04-10T17:51:44.550Z,2.00
2023-04-10T17:54:11.425Z,2.17
2023-04-10T17:56:38.544Z,2.20
2023-04-10T17:59:05.338Z,2.40
2023-04-10T18:01:32.284Z,2.27
2023-04-10T18:04:00.057Z,2.10
2023-04-10T18:06:27.617Z,1.80
2023-04-10T18:08:55.967Z,1.90
2023-04-10T18:11:23.995Z,2.30
2023-04-10T18:13:50.866Z,1.67
2023-04-10T18:16:17.969Z,1.37
2023-04-10T18:18:44.918Z,1.50
2023-04-10T18:21:14.825Z,1.40
2023-04-10T18:23:41.675Z,1.17
2023-04-10T18:26:08.477Z,1.57
2023-04-10T18:28:36.399Z,1.50
2023-04-10T18:31:03.366Z,1.30
2023-04-10T18:33:30.204Z,1.03
2023-04-10T18:35:58.646Z,1.00
2023-04-10T18:38:28.424Z,0.77
2023-04-10T18:40:56.940Z,0.93
2023-04-10T18:43:25.528Z,1.00
2023-04-10T18:45:52.440Z,0.80
2023-04-10T18:48:19.340Z,1.00
2023-04-10T18:50:46.140Z,1.30
2023-04-10T18:53:13.013Z,1.10
2023-04-10T18:55:40.090Z,1.37
2023-04-10T18:58:06.915Z,1.17
2023-04-10T19:00:34.298Z,1.67
2023-04-10T19:03:01.355Z,1.20
2023-04-10T19:05:32.661Z,1.27
2023-04-10T19:08:04.738Z,1.20
2023-04-10T19:10:32.588Z,1.53
2023-04-10T19:12:59.351Z,1.80
2023-04-10T19:15:26.998Z,1.60
2023-04-10T19:17:54.726Z,1.30
2023-04-10T19:20:48.844Z,1.43
2023-04-10T19:23:09.605Z,1.73
2023-04-10T19:25:36.630Z,1.53
2023-04-10T19:28:03.425Z,1.00
2023-04-10T19:30:30.522Z,1.43
2023-04-10T19:32:57.376Z,1.23
2023-04-10T19:35:24.757Z,1.27
2023-04-10T19:37:51.814Z,1.20
2023-04-10T19:40:20.164Z,0.90
2023-04-10T19:42:58.155Z,1.30
2023-04-10T19:45:29.641Z,2.07
2023-04-10T19:47:57.069Z,1.40
2023-04-10T19:50:24.020Z,1.40
2023-04-10T19:52:51.719Z,1.87
2023-04-10T19:55:19.269Z,1.20
2023-04-10T19:57:48.962Z,1.87
2023-04-10T20:00:15.970Z,1.27
2023-04-10T20:02:43.077Z,2.10
2023-04-10T20:05:10.230Z,1.43
2023-04-10T20:07:37.036Z,1.47
2023-04-10T20:10:04.657Z,1.37
2023-04-10T20:12:34.953Z,1.10
2023-04-10T20:15:03.414Z,1.53
2023-04-10T20:17:30.627Z,1.13
2023-04-10T20:19:58.302Z,1.00
2023-04-10T20:22:25.570Z,1.10
2023-04-10T20:24:53.423Z,1.23
2023-04-10T20:27:20.392Z,1.00
2023-04-10T20:29:47.328Z,1.03
2023-04-10T20:32:14.166Z,1.20
2023-04-10T20:34:40.955Z,1.07
2023-04-10T20:37:07.782Z,0.93
2023-04-10T20:39:34.653Z,0.77
2023-04-10T20:42:02.557Z,0.87
2023-04-10T20:44:29.590Z,0.87
2023-04-10T20:46:56.499Z,1.17
2023-04-10T20:49:24.274Z,1.50
2023-04-10T20:51:51.087Z,0.97
2023-04-10T20:54:19.072Z,0.73
2023-04-10T20:56:46.701Z,1.40
2023-04-10T20:59:13.729Z,1.23
2023-04-10T21:01:41.118Z,1.20
2023-04-10T21:04:08.063Z,1.40
2023-04-10T21:06:36.195Z,1.33
2023-04-10T21:09:03.001Z,0.90
2023-04-10T21:11:29.772Z,1.77
2023-04-10T21:13:59.015Z,1.17
2023-04-10T21:16:26.257Z,1.43
2023-04-10T21:18:53.647Z,1.37
2023-04-10T21:21:20.748Z,2.37
2023-04-10T21:23:47.512Z,1.70
2023-04-10T21:26:14.416Z,1.43
2023-04-10T21:28:41.253Z,1.20
2023-04-10T21:31:08.164Z,1.30
2023-04-10T21:33:35.110Z,1.97
2023-04-10T21:36:02.451Z,2.53
2023-04-10T21:38:29.393Z,1.73
2023-04-10T21:40:56.294Z,2.00
2023-04-10T21:43:23.112Z,1.63
2023-04-10T21:45:49.973Z,1.23
2023-04-10T21:48:16.885Z,1.90
2023-04-10T21:50:43.701Z,1.50
2023-04-10T21:53:10.634Z,0.97
2023-04-10T21:55:37.520Z,0.90
2023-04-10T21:58:04.982Z,1.20
2023-04-10T22:00:33.613Z,1.13
2023-04-10T22:03:00.499Z,1.83
2023-04-10T22:05:27.716Z,1.20
2023-04-10T22:07:55.468Z,1.53
2023-04-10T22:10:22.441Z,1.40
2023-04-10T22:12:49.645Z,1.60
2023-04-10T22:15:17.003Z,1.30
2023-04-10T22:17:45.484Z,1.33
2023-04-10T22:20:12.437Z,1.17
2023-04-10T22:22:39.244Z,1.40
2023-04-10T22:25:06.309Z,0.93
2023-04-10T22:27:33.745Z,0.77
2023-04-10T22:30:03.846Z,1.00
2023-04-10T22:32:32.081Z,1.30
2023-04-10T22:34:59.564Z,0.80
2023-04-10T22:37:29.487Z,0.60
2023-04-10T22:39:56.371Z,0.97
2023-04-10T22:42:23.953Z,1.20
2023-04-10T22:44:50.845Z,0.80
2023-04-10T22:47:17.904Z,0.40
2023-04-10T22:49:46.000Z,0.80
2023-04-10T22:52:13.375Z,0.70
2023-04-10T22:54:40.079Z,1.17
2023-04-10T22:57:07.577Z,1.03
2023-04-10T22:59:38.015Z,1.23
2023-04-10T23:02:05.254Z,1.20
2023-04-10T23:04:32.243Z,0.87
2023-04-10T23:06:59.461Z,0.97
2023-04-10T23:09:26.344Z,0.90
2023-04-10T23:11:53.293Z,1.50
2023-04-10T23:14:20.364Z,1.27
2023-04-10T23:16:47.259Z,1.13
2023-04-10T23:19:14.219Z,0.97
2023-04-10T23:21:41.177Z,1.33
2023-04-10T23:24:08.074Z,0.53
2023-04-10T23:26:34.894Z,0.83
2023-04-10T23:29:02.071Z,1.27
2023-04-10T23:31:30.281Z,1.27
2023-04-10T23:33:57.085Z,2.10
2023-04-10T23:36:23.882Z,1.27
2023-04-10T23:38:50.731Z,1.30
2023-04-10T23:41:17.729Z,1.17
2023-04-10T23:43:44.837Z,1.20
2023-04-10T23:46:11.823Z,2.13
2023-04-10T23:48:38.800Z,1.90
2023-04-10T23:51:06.615Z,2.13
2023-04-10T23:53:34.018Z,1.93
2023-04-10T23:56:01.151Z,2.40
2023-04-10T23:58:29.032Z,1.40
